aviador You're here:

LQTZ Decoded Metar

in _UNIDENTIFIED
Report Time2017-09-23 08:30:00
UTC Time2017-09-23 09:05:04
Flight Rules vfr VFR
WindVRB at 02 kt
Visibility9999 m
Phenomena:N/A
Clouds:Scattered 055 Hf
Expected CloudBase > 2,400 ft AGL from Temp-Dew spread
CeilingNone
Temp14°C (ISA +1)
Dew Point08°C (67% RH)
AAT12.8°C
QNH1022 hPa
Density Alt968 ft
Elevation1,004 ft
Report Wrong Elevation
Raw Report
METAR LQTZ 230830Z VRB02KT 9999 SCT055 14/08 Q1022=

Extra information for LQTZ:More info

Metar Taf Metar & Taf Last 4 Metars F.Rules Stats Wind Profile Meteogram Temp Stats Metar ALERT Operation Metar Decoded Social comments